Time;durP1;ratioP1;P1;durP2;ratioP2;P2;SDS_P1;SDS_P2;PMS_P1;PMS_P2;Temp;Humidity;BMP_temperature;BMP_pressure;BME280_temperature;BME280_humidity;BME280_pressure;Samples;Min_cycle;Max_cycle;Signal;HPM_P1;HPM_P2
2023/10/06 00:00:35;;;;;;;3.50;2.10;;;14.20;63.90;12.90;97498.00;;;;4971557;28;20261;-86
2023/10/06 00:03:05;;;;;;;3.47;2.40;;;14.20;64.00;12.90;97494.00;;;;4970890;28;20218;-86
2023/10/06 00:05:33;;;;;;;2.50;2.10;;;14.20;64.00;12.80;97495.00;;;;4971200;28;20226;-86
2023/10/06 00:08:04;;;;;;;5.20;2.20;;;14.10;64.10;12.80;97499.00;;;;4970549;28;20242;-86
2023/10/06 00:10:33;;;;;;;3.33;2.13;;;14.10;64.30;12.80;97498.00;;;;4971480;28;20196;-87
2023/10/06 00:13:01;;;;;;;3.20;2.40;;;14.10;64.30;12.80;97496.00;;;;4970064;28;20200;-87
2023/10/06 00:15:38;;;;;;;3.03;2.47;;;14.10;64.20;12.80;97489.00;;;;4967321;28;20215;-86
2023/10/06 00:18:09;;;;;;;6.90;2.90;;;14.10;64.10;12.70;97479.00;;;;4949874;28;20231;-86
2023/10/06 00:20:48;;;;;;;5.30;3.20;;;14.00;64.20;12.70;97490.00;;;;4961709;28;20659;-87
2023/10/06 00:23:21;;;;;;;3.20;2.20;;;14.00;64.60;12.70;97485.00;;;;4969362;28;20207;-86
2023/10/06 00:25:52;;;;;;;3.30;2.33;;;13.90;64.70;12.70;97489.00;;;;4968997;28;20203;-87
2023/10/06 00:28:21;;;;;;;3.23;2.27;;;13.90;64.60;12.60;97495.00;;;;4970403;28;20289;-86
2023/10/06 00:30:56;;;;;;;3.30;2.47;;;13.90;64.50;12.60;97495.00;;;;4970833;28;20215;-87
2023/10/06 00:33:26;;;;;;;2.90;2.10;;;13.90;64.50;12.60;97494.00;;;;4971005;28;20285;-87
2023/10/06 00:35:53;;;;;;;3.07;2.20;;;13.80;64.30;12.50;97488.00;;;;4970180;28;20290;-87
2023/10/06 00:38:22;;;;;;;3.80;2.40;;;13.80;64.20;12.50;97492.00;;;;4970170;28;20263;-87
2023/10/06 00:40:52;;;;;;;3.50;2.50;;;13.80;64.30;12.40;97482.00;;;;4970646;28;20222;-87
2023/10/06 00:43:36;;;;;;;3.37;2.50;;;13.70;64.20;12.40;97485.00;;;;4971481;28;20544;-86
2023/10/06 00:46:07;;;;;;;3.73;2.50;;;13.70;64.40;12.40;97489.00;;;;4970400;28;20268;-86
2023/10/06 00:48:38;;;;;;;2.43;1.90;;;13.70;64.30;12.30;97487.00;;;;4962366;28;20207;-86
2023/10/06 00:51:12;;;;;;;3.80;2.30;;;13.60;64.20;12.30;97482.00;;;;4970712;28;20235;-86
2023/10/06 00:53:40;;;;;;;4.00;2.60;;;13.60;64.30;12.30;97480.00;;;;4955327;28;20207;-87
2023/10/06 00:56:14;;;;;;;3.83;2.77;;;13.60;64.20;12.20;97482.00;;;;4970187;28;20222;-86
2023/10/06 00:58:42;;;;;;;3.13;2.43;;;13.50;64.20;12.20;97483.00;;;;4969908;28;20288;-87
2023/10/06 01:01:12;;;;;;;3.23;2.57;;;13.50;64.20;12.20;97477.00;;;;4970094;28;20211;-86
2023/10/06 01:03:42;;;;;;;3.73;2.50;;;13.50;64.30;12.10;97477.00;;;;4970157;28;20203;-86
2023/10/06 01:06:14;;;;;;;3.43;2.50;;;13.50;64.30;12.10;97475.00;;;;4970283;28;20254;-86
2023/10/06 01:08:45;;;;;;;3.67;2.40;;;13.50;64.40;12.10;97473.00;;;;4969134;28;20242;-86
2023/10/06 01:11:16;;;;;;;3.43;2.50;;;13.40;64.40;12.10;97468.00;;;;4969256;28;20206;-86
2023/10/06 01:13:54;;;;;;;3.30;2.60;;;13.40;64.40;12.00;97469.00;;;;4969301;28;20230;-86
2023/10/06 01:16:34;;;;;;;2.50;2.17;;;13.40;64.50;12.00;97465.00;;;;4967925;28;20261;-87
2023/10/06 01:19:14;;;;;;;2.53;2.23;;;13.40;64.60;12.00;97467.00;;;;4969338;28;20219;-86
2023/10/06 01:21:45;;;;;;;2.47;2.27;;;13.30;64.40;11.90;97465.00;;;;4961547;28;20222;-86
2023/10/06 01:24:15;;;;;;;3.97;2.30;;;13.30;64.40;11.90;97458.00;;;;4967769;28;20231;-86
2023/10/06 01:26:43;;;;;;;3.17;2.20;;;13.30;64.70;11.90;97469.00;;;;4969357;28;20625;-87
2023/10/06 01:29:11;;;;;;;3.83;2.40;;;13.30;64.90;11.90;97470.00;;;;4969510;28;20234;-86
2023/10/06 01:31:41;;;;;;;3.47;2.17;;;13.20;64.90;11.90;97462.00;;;;4969750;28;20634;-86
2023/10/06 01:34:11;;;;;;;3.30;2.30;;;13.20;65.50;11.90;97469.00;;;;4969805;28;20208;-86
2023/10/06 01:36:38;;;;;;;3.40;2.50;;;13.20;64.70;11.90;97473.00;;;;4962317;28;20277;-87
2023/10/06 01:39:16;;;;;;;2.80;2.03;;;13.20;64.70;11.90;97471.00;;;;4969731;28;20641;-87
2023/10/06 01:41:47;;;;;;;2.80;1.90;;;13.20;64.70;11.80;97464.00;;;;4950483;28;20203;-87
2023/10/06 01:44:15;;;;;;;3.00;1.90;;;13.20;64.70;11.80;97471.00;;;;4958927;28;20221;-86
2023/10/06 01:46:44;;;;;;;5.10;2.33;;;13.20;64.60;11.80;97466.00;;;;4963615;28;20676;-86
2023/10/06 01:49:11;;;;;;;5.07;2.47;;;13.10;64.60;11.80;97466.00;;;;4972210;28;20215;-86
2023/10/06 01:51:39;;;;;;;2.97;2.23;;;13.10;64.60;11.80;97478.00;;;;4965882;28;20249;-86
2023/10/06 01:54:11;;;;;;;2.83;2.17;;;13.10;64.60;11.70;97466.00;;;;4973040;28;20212;-86
2023/10/06 01:56:42;;;;;;;3.33;2.30;;;13.10;64.70;11.70;97474.00;;;;4972671;28;20227;-87
2023/10/06 01:59:10;;;;;;;4.30;2.23;;;13.00;64.60;11.70;97462.00;;;;4963559;28;20223;-86
2023/10/06 02:01:39;;;;;;;3.50;2.50;;;13.00;64.60;11.60;97468.00;;;;4972489;28;20211;-86
2023/10/06 02:04:09;;;;;;;2.73;2.30;;;13.00;64.60;11.60;97470.00;;;;4957006;28;20196;-87
2023/10/06 02:06:37;;;;;;;2.83;2.10;;;13.00;64.70;11.60;97473.00;;;;4964963;28;20235;-86
2023/10/06 02:09:06;;;;;;;2.23;2.00;;;13.00;64.70;11.60;97469.00;;;;4972382;28;20670;-86
2023/10/06 02:11:34;;;;;;;3.77;2.10;;;12.90;64.90;11.60;97467.00;;;;4971941;28;20239;-86
2023/10/06 02:14:01;;;;;;;2.63;2.13;;;12.90;65.10;11.60;97467.00;;;;4957258;28;20204;-87
2023/10/06 02:16:29;;;;;;;2.83;2.17;;;12.90;65.20;11.60;97465.00;;;;4963336;28;20235;-86
2023/10/06 02:18:59;;;;;;;3.37;2.43;;;12.90;65.20;11.60;97460.00;;;;4972269;28;20227;-86
2023/10/06 02:21:28;;;;;;;6.20;2.90;;;12.90;65.30;11.60;97455.00;;;;4970016;28;20720;-86
2023/10/06 02:24:03;;;;;;;3.10;2.23;;;12.90;65.30;11.60;97456.00;;;;4961162;28;20655;-86
2023/10/06 02:26:35;;;;;;;3.40;2.37;;;12.90;65.50;11.60;97456.00;;;;4963417;28;20218;-86
2023/10/06 02:29:03;;;;;;;3.77;2.53;;;12.90;66.10;11.50;97454.00;;;;4972920;28;20215;-86
2023/10/06 02:31:36;;;;;;;2.97;1.80;;;12.80;65.20;11.50;97457.00;;;;4964532;28;20226;-87
2023/10/06 02:34:12;;;;;;;4.07;2.47;;;12.80;65.20;11.50;97448.00;;;;4972712;28;20203;-87
2023/10/06 02:36:41;;;;;;;2.67;1.90;;;12.80;65.10;11.50;97449.00;;;;4968134;28;20228;-87
2023/10/06 02:39:10;;;;;;;2.37;1.97;;;12.80;65.00;11.50;97450.00;;;;4968302;28;20227;-86
2023/10/06 02:41:38;;;;;;;2.23;2.03;;;12.80;65.00;11.40;97463.00;;;;4971947;28;20204;-87
2023/10/06 02:44:14;;;;;;;3.50;2.20;;;12.80;65.00;11.40;97458.00;;;;4971841;28;20235;-86
2023/10/06 02:46:44;;;;;;;3.07;2.00;;;12.80;65.00;11.40;97456.00;;;;4960275;28;20228;-86
2023/10/06 02:49:12;;;;;;;3.63;2.10;;;12.80;64.90;11.30;97456.00;;;;4961213;28;20690;-86
2023/10/06 02:51:48;;;;;;;2.53;1.93;;;12.60;64.70;11.30;97450.00;;;;4970851;28;20230;-87
2023/10/06 02:54:27;;;;;;;3.17;1.80;;;12.70;64.80;11.30;97452.00;;;;4972171;28;20693;-86
2023/10/06 02:56:55;;;;;;;2.60;2.20;;;12.70;64.80;11.30;97453.00;;;;4965943;28;20230;-86
2023/10/06 02:59:24;;;;;;;2.67;1.60;;;12.70;64.80;11.20;97440.00;;;;4960726;28;20279;-86
2023/10/06 03:01:59;;;;;;;2.33;1.93;;;12.60;64.80;11.20;97443.00;;;;4970249;28;20697;-86
2023/10/06 03:04:27;;;;;;;3.00;2.00;;;12.60;64.90;11.20;97443.00;;;;4967954;28;20199;-86
2023/10/06 03:06:57;;;;;;;3.10;2.20;;;12.60;64.90;11.20;97449.00;;;;4958812;28;20247;-86
2023/10/06 03:09:36;;;;;;;3.33;2.23;;;12.60;64.90;11.20;97447.00;;;;4968971;28;20211;-86
2023/10/06 03:12:11;;;;;;;2.60;2.40;;;12.50;65.00;11.10;97447.00;;;;4963116;28;20199;-86
2023/10/06 03:14:43;;;;;;;2.67;1.90;;;12.50;65.20;11.10;97451.00;;;;4963737;28;20253;-86
2023/10/06 03:17:13;;;;;;;3.70;2.20;;;12.50;65.40;11.10;97448.00;;;;4971650;28;20242;-86
2023/10/06 03:19:41;;;;;;;6.87;2.67;;;12.40;65.50;11.10;97449.00;;;;4958754;28;20224;-86
2023/10/06 03:22:12;;;;;;;5.03;2.43;;;12.40;65.50;11.00;97444.00;;;;4967799;28;20726;-86
2023/10/06 03:24:52;;;;;;;7.60;2.10;;;12.40;65.60;11.00;97450.00;;;;4971107;28;20641;-87
2023/10/06 03:27:23;;;;;;;5.63;2.27;;;12.40;65.70;11.00;97438.00;;;;4963018;28;20311;-86
2023/10/06 03:29:54;;;;;;;3.10;2.27;;;12.30;65.80;11.00;97448.00;;;;4965749;28;20716;-86
2023/10/06 03:32:38;;;;;;;6.97;2.50;;;12.30;65.80;11.00;97456.00;;;;4959600;28;20239;-86
2023/10/06 03:35:16;;;;;;;4.27;2.90;;;12.30;65.90;11.00;97455.00;;;;4959374;28;20200;-86
2023/10/06 03:37:52;;;;;;;5.83;2.27;;;12.30;66.10;11.00;97456.00;;;;4958199;28;20242;-86
2023/10/06 03:40:23;;;;;;;8.10;2.50;;;12.30;66.10;11.00;97458.00;;;;4967012;28;20223;-86
2023/10/06 03:42:52;;;;;;;4.37;2.17;;;12.30;66.00;11.00;97451.00;;;;4963525;28;20262;-86
2023/10/06 03:45:26;;;;;;;6.57;2.30;;;12.30;65.90;11.00;97452.00;;;;4967475;28;20203;-86
2023/10/06 03:48:08;;;;;;;4.17;2.27;;;12.30;65.80;11.00;97461.00;;;;4956893;28;20234;-87
2023/10/06 03:50:38;;;;;;;2.87;1.77;;;12.30;65.80;11.00;97459.00;;;;4962302;28;20233;-86
2023/10/06 03:53:07;;;;;;;5.10;2.00;;;12.30;65.60;11.00;97454.00;;;;4961861;28;20237;-86
2023/10/06 03:55:39;;;;;;;4.33;2.23;;;12.30;65.50;10.90;97453.00;;;;4970120;28;20204;-87
2023/10/06 03:58:08;;;;;;;5.60;2.00;;;12.30;65.50;10.90;97454.00;;;;4961428;28;20334;-86
2023/10/06 04:00:38;;;;;;;4.63;2.27;;;12.30;65.50;10.90;97451.00;;;;4959798;28;20227;-86
2023/10/06 04:03:09;;;;;;;3.87;2.67;;;12.30;65.60;10.90;97451.00;;;;4968729;28;20207;-86
2023/10/06 04:05:38;;;;;;;3.57;2.53;;;12.30;65.60;10.90;97444.00;;;;4953654;28;20273;-86
2023/10/06 04:08:11;;;;;;;4.90;2.30;;;12.30;65.70;10.90;97449.00;;;;4968714;28;20669;-86
2023/10/06 04:10:40;;;;;;;3.47;2.43;;;12.20;65.80;10.90;97454.00;;;;4961566;28;20215;-86
2023/10/06 04:13:09;;;;;;;2.83;1.80;;;12.20;65.90;10.90;97459.00;;;;4971456;28;20207;-87
2023/10/06 04:15:38;;;;;;;3.43;2.23;;;12.20;65.90;10.90;97448.00;;;;4970958;28;20207;-87
2023/10/06 04:18:10;;;;;;;3.17;2.03;;;12.20;65.90;10.90;97448.00;;;;4970509;28;20749;-86
2023/10/06 04:20:40;;;;;;;3.00;2.03;;;12.20;65.80;10.90;97445.00;;;;4966958;28;20258;-86
2023/10/06 04:23:08;;;;;;;2.27;1.90;;;12.20;65.70;10.80;97450.00;;;;4970759;28;20204;-86
2023/10/06 04:25:37;;;;;;;3.90;2.57;;;12.20;65.70;10.80;97444.00;;;;4962970;28;20238;-86
2023/10/06 04:28:08;;;;;;;4.70;2.10;;;12.20;65.60;10.80;97446.00;;;;4970787;28;20226;-86
2023/10/06 04:30:37;;;;;;;3.43;2.57;;;12.20;65.60;10.80;97443.00;;;;4970740;28;20254;-87
2023/10/06 04:33:05;;;;;;;4.43;2.20;;;12.10;65.50;10.80;97447.00;;;;4970876;28;20202;-87
2023/10/06 04:35:34;;;;;;;4.03;2.30;;;12.10;65.40;10.70;97442.00;;;;4962850;28;20663;-85
2023/10/06 04:38:03;;;;;;;3.27;2.30;;;12.10;65.50;10.70;97448.00;;;;4970473;28;20259;-85
2023/10/06 04:40:30;;;;;;;5.13;2.53;;;12.10;65.50;10.70;97447.00;;;;4962437;28;20288;-86
2023/10/06 04:42:57;;;;;;;7.30;2.67;;;12.10;65.60;10.70;97447.00;;;;4970584;28;20237;-85
2023/10/06 04:45:24;;;;;;;7.33;2.30;;;12.10;65.80;10.70;97447.00;;;;4960374;28;20199;-85
2023/10/06 04:47:55;;;;;;;4.27;2.30;;;12.00;65.80;10.70;97441.00;;;;4966392;28;20239;-86
2023/10/06 04:50:23;;;;;;;4.07;2.70;;;12.00;66.00;10.70;97441.00;;;;4970355;28;20199;-85
2023/10/06 04:52:54;;;;;;;4.83;2.80;;;12.00;66.10;10.70;97443.00;;;;4967782;28;20663;-86
2023/10/06 04:55:21;;;;;;;3.90;2.17;;;12.00;66.10;10.60;97429.00;;;;4968535;28;20199;-86
2023/10/06 04:57:48;;;;;;;3.23;2.53;;;12.00;66.10;10.60;97430.00;;;;4968197;28;20313;-86
2023/10/06 05:00:20;;;;;;;3.70;1.97;;;12.00;66.00;10.60;97424.00;;;;4969350;28;20255;-86
2023/10/06 05:02:47;;;;;;;4.07;2.10;;;11.90;65.90;10.60;97426.00;;;;4969216;28;20253;-86
2023/10/06 05:05:19;;;;;;;3.03;2.13;;;11.90;65.80;10.60;97426.00;;;;4969258;28;20560;-86
2023/10/06 05:07:47;;;;;;;4.63;1.90;;;11.90;65.90;10.60;97418.00;;;;4970146;28;20318;-85
2023/10/06 05:10:18;;;;;;;2.67;1.80;;;11.90;65.90;10.50;97421.00;;;;4969910;28;20265;-86
2023/10/06 05:12:46;;;;;;;4.70;2.10;;;11.90;65.80;10.50;97421.00;;;;4970600;28;20199;-86
2023/10/06 05:15:23;;;;;;;4.40;2.13;;;11.90;65.80;10.50;97430.00;;;;4970474;28;20705;-86
2023/10/06 05:17:55;;;;;;;2.30;2.00;;;11.90;65.90;10.50;97439.00;;;;4969612;28;20246;-87
2023/10/06 05:20:29;;;;;;;2.77;2.20;;;11.90;66.00;10.50;97439.00;;;;4970667;28;20211;-87
2023/10/06 05:22:58;;;;;;;4.90;2.33;;;11.90;66.00;10.50;97441.00;;;;4972395;28;20593;-87
2023/10/06 05:25:27;;;;;;;4.07;2.47;;;11.90;66.00;10.50;97435.00;;;;4973495;28;20208;-86
2023/10/06 05:27:55;;;;;;;4.53;2.50;;;11.90;66.00;10.50;97436.00;;;;4973523;28;20219;-87
2023/10/06 05:30:22;;;;;;;2.87;2.23;;;11.90;66.00;10.50;97435.00;;;;4972561;28;20268;-87
2023/10/06 05:32:49;;;;;;;2.93;2.17;;;11.90;66.10;10.50;97438.00;;;;4972396;28;20292;-87
2023/10/06 05:35:19;;;;;;;2.77;2.20;;;11.90;66.70;10.50;97446.00;;;;4964530;28;20196;-87
2023/10/06 05:37:46;;;;;;;2.57;1.90;;;11.90;66.00;10.50;97445.00;;;;4964066;28;20690;-88
2023/10/06 05:40:16;;;;;;;2.70;2.30;;;11.80;65.90;10.40;97434.00;;;;4965230;28;20227;-87
2023/10/06 05:42:48;;;;;;;3.87;2.10;;;11.80;65.90;10.40;97445.00;;;;4968241;28;20305;-87
2023/10/06 05:45:18;;;;;;;3.07;2.07;;;11.80;65.90;10.40;97447.00;;;;4972624;28;20234;-88
2023/10/06 05:47:46;;;;;;;4.20;2.43;;;11.80;66.00;10.40;97454.00;;;;4962893;28;20215;-87
2023/10/06 05:50:26;;;;;;;2.23;2.00;;;11.80;66.10;10.40;97444.00;;;;4971815;28;20229;-88
2023/10/06 05:52:58;;;;;;;3.60;2.10;;;11.80;66.20;10.40;97447.00;;;;4971999;28;20269;-87
2023/10/06 05:55:30;;;;;;;4.60;2.40;;;11.80;66.30;10.40;97459.00;;;;4962572;28;20264;-88
2023/10/06 05:58:00;;;;;;;3.97;2.43;;;11.80;66.40;10.40;97460.00;;;;4971086;28;20302;-88
2023/10/06 06:00:30;;;;;;;5.03;2.07;;;11.80;66.40;10.40;97461.00;;;;4972179;28;20254;-86
2023/10/06 06:03:00;;;;;;;3.10;2.00;;;11.80;66.50;10.40;97465.00;;;;4971139;28;20207;-86
2023/10/06 06:05:29;;;;;;;3.03;1.80;;;11.80;66.80;10.50;97463.00;;;;4971648;28;20697;-86
2023/10/06 06:07:59;;;;;;;2.93;2.07;;;11.80;67.00;10.50;97462.00;;;;4972219;28;20223;-87
2023/10/06 06:10:28;;;;;;;2.37;1.87;;;11.90;67.10;10.50;97455.00;;;;4962308;28;20220;-86
2023/10/06 06:13:00;;;;;;;2.63;1.63;;;11.90;67.20;10.60;97461.00;;;;4967249;28;20249;-86
2023/10/06 06:15:34;;;;;;;2.57;1.60;;;11.90;67.20;10.60;97461.00;;;;4954293;28;20242;-87
2023/10/06 06:18:05;;;;;;;2.93;1.73;;;12.00;67.20;10.60;97467.00;;;;4967972;28;20623;-86
2023/10/06 06:20:38;;;;;;;3.60;2.20;;;12.00;67.20;10.70;97468.00;;;;4963419;28;20227;-87
2023/10/06 06:23:15;;;;;;;3.27;2.10;;;12.10;67.30;10.70;97467.00;;;;4963038;28;20208;-87
2023/10/06 06:25:46;;;;;;;2.83;2.00;;;12.10;67.40;10.80;97461.00;;;;4966439;28;20207;-87
2023/10/06 06:28:18;;;;;;;3.13;2.00;;;12.10;67.40;10.80;97465.00;;;;4972211;28;20797;-86
2023/10/06 06:30:50;;;;;;;4.97;2.30;;;12.20;67.70;10.80;97474.00;;;;4953519;28;20242;-87
2023/10/06 06:33:22;;;;;;;4.37;2.27;;;12.20;67.70;10.90;97479.00;;;;4956875;28;20200;-87
2023/10/06 06:35:50;;;;;;;3.20;2.10;;;12.30;67.90;11.00;97477.00;;;;4952804;28;20204;-87
2023/10/06 06:38:18;;;;;;;3.13;2.23;;;12.30;68.10;11.00;97485.00;;;;4960899;28;20255;-86
2023/10/06 06:40:46;;;;;;;3.70;2.40;;;12.40;68.20;11.10;97481.00;;;;4952440;28;20231;-87
2023/10/06 06:43:13;;;;;;;2.97;2.63;;;12.40;68.40;11.20;97492.00;;;;4955692;28;20208;-87
2023/10/06 06:45:41;;;;;;;3.30;2.20;;;12.40;68.60;11.20;97494.00;;;;4962184;28;20293;-87
2023/10/06 06:48:12;;;;;;;3.40;2.97;;;12.50;68.90;11.30;97494.00;;;;4944800;28;20807;-86
2023/10/06 06:50:42;;;;;;;4.43;2.50;;;12.60;69.00;11.30;97498.00;;;;4955157;28;20203;-87
2023/10/06 06:53:10;;;;;;;5.37;3.33;;;12.60;69.80;11.40;97503.00;;;;4962616;28;20242;-89
2023/10/06 06:55:38;;;;;;;2.80;2.50;;;12.70;69.30;11.50;97510.00;;;;4961968;28;20206;-87
2023/10/06 06:58:10;;;;;;;3.13;2.60;;;12.70;69.40;11.60;97510.00;;;;4955091;28;20331;-87
2023/10/06 07:00:39;;;;;;;4.77;2.63;;;12.80;69.40;11.70;97516.00;;;;4952981;28;20255;-87
2023/10/06 07:03:11;;;;;;;4.63;2.63;;;12.80;69.40;11.70;97522.00;;;;4966809;28;20290;-87
2023/10/06 07:05:48;;;;;;;4.53;2.53;;;12.90;69.60;11.80;97521.00;;;;4953439;28;20231;-87
2023/10/06 07:08:18;;;;;;;5.07;3.27;;;13.00;69.60;11.90;97530.00;;;;4971583;28;20297;-87
2023/10/06 07:10:52;;;;;;;3.53;2.80;;;13.10;69.90;11.90;97523.00;;;;4959638;28;20212;-87
2023/10/06 07:13:22;;;;;;;2.67;2.20;;;13.20;70.00;12.00;97524.00;;;;4970051;28;20317;-87
2023/10/06 07:15:49;;;;;;;3.83;2.47;;;13.20;70.00;12.10;97529.00;;;;4967724;28;20214;-87
2023/10/06 07:18:19;;;;;;;5.73;3.07;;;13.30;70.00;12.20;97529.00;;;;4963469;28;20802;-87
2023/10/06 07:20:47;;;;;;;3.03;2.60;;;13.30;70.10;12.30;97526.00;;;;4966140;28;20701;-87
2023/10/06 07:23:23;;;;;;;6.20;3.50;;;13.40;70.20;12.30;97518.00;;;;4971846;28;20195;-87
2023/10/06 07:25:50;;;;;;;4.37;2.77;;;13.50;70.30;12.40;97518.00;;;;4973039;28;20207;-88
2023/10/06 07:28:17;;;;;;;4.03;2.60;;;13.60;70.40;12.50;97512.00;;;;4964018;28;20238;-88
2023/10/06 07:30:45;;;;;;;4.47;3.40;;;13.70;70.50;12.60;97517.00;;;;4957818;28;20207;-88
2023/10/06 07:33:12;;;;;;;4.50;3.10;;;13.70;70.50;12.70;97511.00;;;;4966835;28;20620;-87
2023/10/06 07:35:43;;;;;;;4.20;3.57;;;13.80;70.50;12.80;97509.00;;;;4964272;28;20624;-87
2023/10/06 07:38:14;;;;;;;4.63;3.37;;;13.90;70.60;12.90;97514.00;;;;4961554;28;20224;-87
2023/10/06 07:40:42;;;;;;;5.73;4.67;;;13.90;70.70;13.00;97513.00;;;;4966157;28;20227;-87
2023/10/06 07:43:10;;;;;;;6.07;4.40;;;14.00;70.80;13.10;97515.00;;;;4959690;28;20254;-87
2023/10/06 07:45:38;;;;;;;4.50;3.97;;;14.10;71.00;13.20;97518.00;;;;4954031;28;20218;-87
2023/10/06 07:48:17;;;;;;;3.83;3.43;;;14.20;71.10;13.30;97518.00;;;;4962273;28;20232;-87
2023/10/06 07:50:53;;;;;;;6.13;4.90;;;14.30;71.10;13.40;97517.00;;;;4970390;28;20628;-87
2023/10/06 07:53:23;;;;;;;6.40;4.33;;;14.50;71.20;13.50;97499.00;;;;4971047;28;20207;-87
2023/10/06 07:56:13;;;;;;;5.80;4.10;;;14.60;71.30;13.70;97522.00;;;;4970813;28;20582;-87
2023/10/06 07:58:42;;;;;;;4.87;3.80;;;14.70;71.50;13.80;97516.00;;;;4958450;28;20211;-88
2023/10/06 08:01:12;;;;;;;5.53;3.70;;;14.80;71.10;13.90;97520.00;;;;4962354;28;20306;-88
2023/10/06 08:04:03;;;;;;;4.93;3.73;;;14.90;71.20;14.00;97514.00;;;;4959348;28;20725;-89
2023/10/06 08:06:46;;;;;;;7.30;3.97;;;15.00;71.30;14.10;97515.00;;;;4968996;28;20227;-90
2023/10/06 08:09:21;;;;;;;5.53;4.37;;;15.10;71.80;14.30;97510.00;;;;4961273;28;20204;-88
2023/10/06 08:11:49;;;;;;;5.43;4.47;;;15.30;71.00;14.40;97500.00;;;;4965446;28;20249;-88
2023/10/06 08:14:32;;;;;;;4.93;4.33;;;15.40;71.10;14.50;97502.00;;;;4961145;28;20210;-87
2023/10/06 08:17:05;;;;;;;7.37;4.70;;;15.50;70.90;14.70;97513.00;;;;4972582;28;20250;-87
2023/10/06 08:19:32;;;;;;;5.87;4.17;;;15.60;70.80;14.80;97509.00;;;;4972975;28;20203;-87
2023/10/06 08:22:06;;;;;;;6.37;3.87;;;15.70;70.80;14.90;97496.00;;;;4972789;28;20231;-88
2023/10/06 08:24:33;;;;;;;3.63;3.27;;;15.80;70.80;15.00;97495.00;;;;4957189;28;20234;-88
2023/10/06 08:27:00;;;;;;;6.90;4.03;;;16.00;70.70;15.20;97493.00;;;;4956742;28;20684;-87
2023/10/06 08:29:29;;;;;;;4.50;3.53;;;16.10;70.80;15.30;97503.00;;;;4968604;28;20231;-87
2023/10/06 08:31:57;;;;;;;5.47;4.00;;;16.20;70.80;15.40;97494.00;;;;4956796;28;20218;-87
2023/10/06 08:34:28;;;;;;;7.23;4.40;;;16.30;70.70;15.50;97493.00;;;;4969406;28;20207;-87
2023/10/06 08:36:55;;;;;;;6.30;4.27;;;16.40;70.50;15.70;97491.00;;;;4969203;28;20304;-88
2023/10/06 08:39:38;;;;;;;8.70;4.23;;;16.60;70.50;15.80;97491.00;;;;4968351;28;20212;-88
2023/10/06 08:42:10;;;;;;;4.30;3.50;;;16.70;70.40;16.00;97490.00;;;;4964911;28;20770;-88
2023/10/06 08:44:48;;;;;;;5.03;3.77;;;16.80;70.20;16.10;97511.00;;;;4960154;28;20199;-88
2023/10/06 08:47:17;;;;;;;5.33;3.77;;;16.90;70.20;16.20;97504.00;;;;4971713;28;20651;-88
2023/10/06 08:49:50;;;;;;;7.57;4.33;;;17.10;70.10;16.40;97495.00;;;;4971160;28;20246;-88
2023/10/06 08:52:22;;;;;;;7.63;5.60;;;17.20;69.60;16.50;97500.00;;;;4954361;28;20253;-88
2023/10/06 08:54:54;;;;;;;5.00;4.50;;;17.30;69.00;16.70;97515.00;;;;4957428;28;20211;-88
2023/10/06 08:57:24;;;;;;;5.90;4.73;;;17.40;69.00;16.80;97509.00;;;;4968927;28;20235;-88
2023/10/06 09:00:06;;;;;;;5.90;4.17;;;17.60;69.00;17.00;97514.00;;;;4958525;28;20582;-88
2023/10/06 09:02:41;;;;;;;4.67;4.20;;;17.70;68.90;17.10;97510.00;;;;4971113;28;20230;-88
2023/10/06 09:05:13;;;;;;;6.33;4.40;;;17.80;68.80;17.20;97519.00;;;;4971537;28;20296;-88
2023/10/06 09:08:01;;;;;;;9.77;4.60;;;18.00;68.60;17.40;97516.00;;;;4973204;28;20600;-88
2023/10/06 09:10:30;;;;;;;10.53;4.67;;;18.10;68.20;17.50;97510.00;;;;4973772;28;20232;-88
2023/10/06 09:13:04;;;;;;;7.07;4.70;;;18.20;67.90;17.60;97510.00;;;;4973669;28;20204;-88
2023/10/06 09:15:32;;;;;;;6.97;4.43;;;18.40;67.90;17.80;97513.00;;;;4970893;28;20215;-88
2023/10/06 09:18:02;;;;;;;5.17;4.33;;;18.50;67.80;17.90;97501.00;;;;4968396;28;20223;-88
2023/10/06 09:20:32;;;;;;;6.90;4.53;;;18.60;67.70;18.00;97500.00;;;;4972839;28;20731;-88
2023/10/06 09:23:00;;;;;;;7.53;4.40;;;18.80;67.50;18.20;97494.00;;;;4972857;28;20802;-88
2023/10/06 09:25:42;;;;;;;8.03;4.50;;;18.90;67.40;18.30;97494.00;;;;4964694;28;20257;-88
2023/10/06 09:28:13;;;;;;;5.40;4.03;;;19.00;67.20;18.40;97496.00;;;;4971356;28;20606;-88
2023/10/06 09:31:05;;;;;;;6.63;4.50;;;19.10;67.10;18.60;97501.00;;;;4971272;28;20272;-88
2023/10/06 09:33:48;;;;;;;7.47;4.20;;;19.30;66.80;18.70;97495.00;;;;4972485;28;20218;-88
2023/10/06 09:36:21;;;;;;;9.77;4.27;;;19.40;66.50;18.80;97502.00;;;;4970479;28;20290;-88
2023/10/06 09:38:50;;;;;;;5.30;4.07;;;19.50;66.40;18.90;97499.00;;;;4970384;28;20227;-88
2023/10/06 09:41:30;;;;;;;7.30;4.73;;;19.70;66.10;19.00;97490.00;;;;4967684;28;20318;-88
2023/10/06 09:44:09;;;;;;;6.63;4.33;;;19.80;65.80;19.10;97487.00;;;;4967956;28;20204;-88
2023/10/06 09:46:41;;;;;;;6.70;4.10;;;19.90;65.50;19.20;97499.00;;;;4965281;28;20245;-87
2023/10/06 09:49:15;;;;;;;5.70;4.00;;;20.00;65.80;19.40;97500.00;;;;4973333;28;20207;-88
2023/10/06 09:51:47;;;;;;;6.53;4.10;;;20.10;65.70;19.40;97500.00;;;;4966360;28;20215;-88
2023/10/06 09:54:15;;;;;;;5.27;3.63;;;20.20;65.60;19.50;97497.00;;;;4968657;28;20205;-88
2023/10/06 09:56:54;;;;;;;5.87;3.67;;;20.30;65.40;19.60;97496.00;;;;4970858;28;20646;-88
2023/10/06 09:59:27;;;;;;;8.27;4.43;;;20.40;65.00;19.70;97496.00;;;;4971073;28;20203;-88
2023/10/06 10:01:59;;;;;;;5.67;3.93;;;20.50;64.40;19.80;97498.00;;;;4972079;28;20243;-88
2023/10/06 10:04:31;;;;;;;5.93;3.77;;;20.50;64.40;19.90;97513.00;;;;4972157;28;20614;-89
2023/10/06 10:07:07;;;;;;;5.97;3.63;;;20.60;64.30;20.00;97499.00;;;;4971628;28;20250;-89
2023/10/06 10:09:43;;;;;;;5.97;4.00;;;20.70;64.60;20.10;97495.00;;;;4971119;28;20221;-89
2023/10/06 10:12:37;;;;;;;7.23;3.90;;;20.80;64.40;20.20;97489.00;;;;4972605;28;20203;-89
2023/10/06 10:15:24;;;;;;;5.73;4.17;;;20.90;63.80;20.30;97484.00;;;;4968671;28;20209;-89
2023/10/06 10:18:18;;;;;;;5.23;3.60;;;21.00;63.50;20.40;97492.00;;;;4966676;28;20227;-89
2023/10/06 10:20:50;;;;;;;5.60;3.63;;;21.10;63.00;20.50;97489.00;;;;4967511;28;20221;-89
2023/10/06 10:23:21;;;;;;;5.60;4.03;;;21.20;63.50;20.60;97489.00;;;;4970320;28;20261;-89
2023/10/06 10:25:48;;;;;;;7.20;4.43;;;21.30;63.50;20.80;97481.00;;;;4972354;28;20211;-89
2023/10/06 10:28:19;;;;;;;6.37;4.00;;;21.40;63.30;20.90;97487.00;;;;4972496;28;20224;-89
2023/10/06 10:30:57;;;;;;;6.97;4.23;;;21.50;63.30;21.00;97477.00;;;;4972124;28;20215;-89
2023/10/06 10:33:29;;;;;;;4.80;3.53;;;21.60;63.00;21.10;97477.00;;;;4964298;28;20679;-89
2023/10/06 10:36:31;;;;;;;6.80;4.33;;;21.70;63.00;21.20;97480.00;;;;4972610;28;20301;-89
2023/10/06 10:39:09;;;;;;;5.17;3.43;;;21.80;62.40;21.30;97473.00;;;;4968959;28;20310;-89
2023/10/06 10:41:40;;;;;;;5.70;3.80;;;21.90;62.40;21.30;97463.00;;;;4965636;28;20273;-89
2023/10/06 10:44:33;;;;;;;6.13;3.90;;;21.90;62.30;21.30;97465.00;;;;4974009;28;20474;-89
2023/10/06 10:47:09;;;;;;;12.37;7.00;;;22.00;60.20;21.30;97463.00;;;;4967949;28;20224;-89
2023/10/06 10:49:40;;;;;;;7.43;5.10;;;22.00;60.80;21.40;97449.00;;;;4968534;28;20207;-89
2023/10/06 10:52:09;;;;;;;5.60;4.00;;;22.00;60.90;21.40;97442.00;;;;4972795;28;20302;-89
2023/10/06 10:54:43;;;;;;;5.20;4.13;;;22.00;60.60;21.40;97436.00;;;;4973740;28;20196;-89
2023/10/06 10:57:21;;;;;;;5.53;3.93;;;22.00;60.20;21.40;97440.00;;;;4973324;28;20281;-89
2023/10/06 11:00:15;;;;;;;5.77;3.70;;;22.00;60.20;21.40;97447.00;;;;4965844;28;20226;-88
2023/10/06 11:03:07;;;;;;;9.00;4.63;;;22.00;59.50;21.40;97450.00;;;;4958549;28;20277;-88
2023/10/06 11:05:37;;;;;;;6.30;4.27;;;22.00;60.00;21.40;97450.00;;;;4973742;28;20596;-89
2023/10/06 11:08:12;;;;;;;4.23;3.70;;;22.00;60.20;21.40;97450.00;;;;4972195;28;20227;-89
2023/10/06 11:10:48;;;;;;;4.67;3.87;;;22.00;59.60;21.50;97445.00;;;;4965173;28;20290;-89
2023/10/06 11:13:19;;;;;;;4.97;4.07;;;22.10;60.30;21.40;97431.00;;;;4973098;28;20631;-89
2023/10/06 11:15:54;;;;;;;5.30;4.10;;;22.10;60.40;21.50;97428.00;;;;4973218;28;20214;-89